createdAt,value
2019-02-08T00:00:48.523Z,166.05
2019-02-08T00:03:16.674Z,178.47
2019-02-08T00:05:44.847Z,106.92
2019-02-08T00:08:13.030Z,93.87
2019-02-08T00:10:41.480Z,112.47
2019-02-08T00:13:09.669Z,99.95
2019-02-08T00:15:38.327Z,111.15
2019-02-08T00:18:06.555Z,131.37
2019-02-08T00:20:35.109Z,138.75
2019-02-08T00:23:03.303Z,113.68
2019-02-08T00:25:31.888Z,116.30
2019-02-08T00:28:00.051Z,91.17
2019-02-08T00:30:28.241Z,95.12
2019-02-08T00:32:56.386Z,96.85
2019-02-08T00:35:24.576Z,86.47
2019-02-08T00:37:53.126Z,82.80
2019-02-08T00:40:21.323Z,87.45
2019-02-08T00:42:49.821Z,80.40
2019-02-08T00:45:18.362Z,76.42
2019-02-08T00:47:46.559Z,93.90
2019-02-08T00:50:16.974Z,71.50
2019-02-08T00:52:45.110Z,90.90
2019-02-08T00:55:13.824Z,82.72
2019-02-08T00:57:43.339Z,87.70
2019-02-08T01:00:11.677Z,84.87
2019-02-08T01:02:40.853Z,75.75
2019-02-08T01:05:10.761Z,76.47
2019-02-08T01:07:39.321Z,109.23
2019-02-08T01:10:10.453Z,84.80
2019-02-08T01:12:38.638Z,81.65
2019-02-08T01:15:07.706Z,96.25
2019-02-08T01:17:35.903Z,88.75
2019-02-08T01:20:05.513Z,77.27
2019-02-08T01:22:33.673Z,70.00
2019-02-08T01:25:01.877Z,71.17
2019-02-08T01:27:30.302Z,77.87
2019-02-08T01:29:58.507Z,80.62
2019-02-08T01:32:26.676Z,74.50
2019-02-08T01:34:56.203Z,73.65
2019-02-08T01:37:24.360Z,75.03
2019-02-08T01:39:53.558Z,86.63
2019-02-08T01:42:21.731Z,67.50
2019-02-08T01:44:49.896Z,79.50
2019-02-08T01:47:18.377Z,84.80
2019-02-08T01:49:46.843Z,69.30
2019-02-08T01:52:15.428Z,78.33
2019-02-08T01:54:43.535Z,66.75
2019-02-08T01:57:12.437Z,57.17
2019-02-08T01:59:40.597Z,69.05
2019-02-08T02:02:08.761Z,64.10
2019-02-08T02:04:37.279Z,95.38
2019-02-08T02:07:05.677Z,64.62
2019-02-08T02:09:33.905Z,75.50
2019-02-08T02:12:02.064Z,73.78
2019-02-08T02:14:30.522Z,64.67
2019-02-08T02:17:00.655Z,68.02
2019-02-08T02:19:29.323Z,58.85
2019-02-08T02:21:57.783Z,67.20
2019-02-08T02:24:26.011Z,59.63
2019-02-08T02:26:54.178Z,68.70
2019-02-08T02:29:22.646Z,64.58
2019-02-08T02:31:50.819Z,61.68
2019-02-08T02:34:18.995Z,53.17
2019-02-08T02:36:47.168Z,63.42
2019-02-08T02:39:15.361Z,64.55
2019-02-08T02:42:09.507Z,66.60
2019-02-08T02:44:36.090Z,64.30
2019-02-08T02:47:04.293Z,63.02
2019-02-08T02:49:32.801Z,68.97
2019-02-08T02:52:00.993Z,62.67
2019-02-08T02:54:29.173Z,58.35
2019-02-08T02:56:57.290Z,56.70
2019-02-08T02:59:25.422Z,52.13
2019-02-08T03:01:53.601Z,58.60
2019-02-08T03:04:21.759Z,53.42
2019-02-08T03:06:50.261Z,53.92
2019-02-08T03:09:18.667Z,56.33
2019-02-08T03:11:46.788Z,53.17
2019-02-08T03:14:14.966Z,47.85
2019-02-08T03:16:43.148Z,45.00
2019-02-08T03:19:12.612Z,41.08
2019-02-08T03:21:40.818Z,43.78
2019-02-08T03:24:13.008Z,45.48
2019-02-08T03:26:37.465Z,46.58
2019-02-08T03:29:06.670Z,46.70
2019-02-08T03:31:35.232Z,57.70
2019-02-08T03:34:03.416Z,52.27
2019-02-08T03:36:32.326Z,60.60
2019-02-08T03:39:00.789Z,53.05
2019-02-08T03:41:29.195Z,51.58
2019-02-08T03:43:57.349Z,46.87
2019-02-08T03:46:25.575Z,41.18
2019-02-08T03:48:53.693Z,42.40
2019-02-08T03:51:21.869Z,41.45
2019-02-08T03:53:50.032Z,45.92
2019-02-08T03:56:18.590Z,40.88
2019-02-08T03:58:48.971Z,43.23
2019-02-08T04:01:18.174Z,44.07
2019-02-08T04:03:46.649Z,54.03
2019-02-08T04:06:14.807Z,46.35
2019-02-08T04:08:43.018Z,38.45
2019-02-08T04:11:11.124Z,45.40
2019-02-08T04:13:39.589Z,44.90
2019-02-08T04:16:07.818Z,49.75
2019-02-08T04:18:35.965Z,48.08
2019-02-08T04:21:04.149Z,35.78
2019-02-08T04:23:32.325Z,36.35
2019-02-08T04:26:01.518Z,32.45
2019-02-08T04:28:29.950Z,40.83
2019-02-08T04:31:07.282Z,34.83
2019-02-08T04:33:36.470Z,30.15
2019-02-08T04:36:04.942Z,33.53
2019-02-08T04:38:33.127Z,35.48
2019-02-08T04:41:01.313Z,41.23
2019-02-08T04:43:29.855Z,44.53
2019-02-08T04:45:58.351Z,34.75
2019-02-08T04:48:26.572Z,37.25
2019-02-08T04:50:54.981Z,35.33
2019-02-08T04:53:23.218Z,36.95
2019-02-08T04:55:51.659Z,37.65
2019-02-08T04:58:19.898Z,36.55
2019-02-08T05:00:48.033Z,30.23
2019-02-08T05:03:16.588Z,35.83
2019-02-08T05:05:45.446Z,33.53
2019-02-08T05:08:32.995Z,31.97
2019-02-08T05:11:01.198Z,34.23
2019-02-08T05:13:29.763Z,32.40
2019-02-08T05:15:57.954Z,34.65
2019-02-08T05:18:26.129Z,38.38
2019-02-08T05:20:54.318Z,50.23
2019-02-08T05:23:22.470Z,48.65
2019-02-08T05:25:50.647Z,46.50
2019-02-08T05:28:19.122Z,46.80
2019-02-08T05:30:47.708Z,35.35
2019-02-08T05:33:16.002Z,41.42
2019-02-08T05:35:44.158Z,39.63
2019-02-08T05:38:13.050Z,41.95
2019-02-08T05:40:41.576Z,48.05
2019-02-08T05:43:10.418Z,45.25
2019-02-08T05:45:38.590Z,45.88
2019-02-08T05:48:06.777Z,46.08
2019-02-08T05:50:34.932Z,44.73
2019-02-08T05:53:03.520Z,39.48
2019-02-08T05:55:31.693Z,37.53
2019-02-08T05:58:00.159Z,42.13
2019-02-08T06:00:36.259Z,40.03
2019-02-08T06:03:04.730Z,46.25
2019-02-08T06:05:33.912Z,40.05
2019-02-08T06:08:02.090Z,39.53
2019-02-08T06:10:30.262Z,42.65
2019-02-08T06:12:58.827Z,43.00
2019-02-08T06:15:27.304Z,48.68
2019-02-08T06:17:55.763Z,46.37
2019-02-08T06:20:24.012Z,43.05
2019-02-08T06:22:52.150Z,43.63
2019-02-08T06:25:20.505Z,45.10
2019-02-08T06:27:48.785Z,46.28
2019-02-08T06:30:18.866Z,41.63
2019-02-08T06:32:47.097Z,40.98
2019-02-08T06:35:16.735Z,47.87
2019-02-08T06:37:45.203Z,47.85
2019-02-08T06:40:15.401Z,40.67
2019-02-08T06:42:44.258Z,60.77
2019-02-08T06:45:14.444Z,48.92
2019-02-08T06:47:42.597Z,47.45
2019-02-08T06:50:12.278Z,50.12
2019-02-08T06:52:40.462Z,44.45
2019-02-08T06:55:10.854Z,45.98
2019-02-08T06:57:43.982Z,49.77
2019-02-08T07:00:22.260Z,47.48
2019-02-08T07:03:12.889Z,39.00
2019-02-08T07:05:51.049Z,52.60
2019-02-08T07:08:29.345Z,55.98
2019-02-08T07:11:22.567Z,55.63
2019-02-08T07:14:08.339Z,51.25
2019-02-08T07:16:52.740Z,51.73
2019-02-08T07:19:46.308Z,51.58
2019-02-08T07:22:37.040Z,57.30
2019-02-08T07:25:25.682Z,52.27
2019-02-08T07:28:16.010Z,52.40
2019-02-08T07:31:04.334Z,54.10
2019-02-08T07:33:50.978Z,56.02
2019-02-08T07:36:38.696Z,63.33
2019-02-08T07:39:25.069Z,54.43
2019-02-08T07:42:02.638Z,52.15
2019-02-08T07:44:39.198Z,53.48
2019-02-08T07:47:25.344Z,53.65
2019-02-08T07:50:12.741Z,50.95
2019-02-08T07:52:59.664Z,57.83
2019-02-08T07:55:53.132Z,60.63
2019-02-08T07:58:52.325Z,53.60
2019-02-08T08:01:35.433Z,52.25
2019-02-08T08:04:19.120Z,53.10
2019-02-08T08:07:15.378Z,53.33
2019-02-08T08:09:50.038Z,61.18
2019-02-08T08:12:32.394Z,51.18
2019-02-08T08:15:10.024Z,44.73
2019-02-08T08:17:59.951Z,41.88
2019-02-08T08:20:44.659Z,39.33
2019-02-08T08:23:29.152Z,40.48
2019-02-08T08:26:18.792Z,44.63
2019-02-08T08:29:18.290Z,32.40
2019-02-08T08:31:53.853Z,29.55
2019-02-08T08:34:52.453Z,33.63
2019-02-08T08:37:51.499Z,34.03
2019-02-08T08:41:04.786Z,31.95
2019-02-08T08:44:14.689Z,30.97
2019-02-08T08:47:26.853Z,31.65
2019-02-08T08:50:22.593Z,33.40
2019-02-08T08:53:29.680Z,28.75
2019-02-08T08:56:12.741Z,32.53
2019-02-08T08:59:14.166Z,30.50
2019-02-08T09:02:18.352Z,33.83
2019-02-08T09:05:19.483Z,32.10
2019-02-08T09:08:30.200Z,32.90
2019-02-08T09:11:49.377Z,33.88
2019-02-08T09:15:01.177Z,34.98
2019-02-08T09:17:53.625Z,34.05
2019-02-08T09:21:00.577Z,30.08
2019-02-08T09:24:23.818Z,28.80
2019-02-08T09:27:39.099Z,29.70
2019-02-08T09:30:28.729Z,29.92
2019-02-08T09:33:47.864Z,31.05
2019-02-08T09:36:58.751Z,27.73
2019-02-08T09:40:26.112Z,30.60
2019-02-08T09:43:56.986Z,26.82
2019-02-08T09:46:51.649Z,24.40
2019-02-08T09:49:57.095Z,25.05
2019-02-08T09:53:01.389Z,24.80
2019-02-08T09:56:02.462Z,24.23
2019-02-08T09:59:08.049Z,24.63
2019-02-08T10:02:27.269Z,21.42
2019-02-08T10:05:39.021Z,21.45
2019-02-08T10:11:45.584Z,19.80
2019-02-08T10:14:40.021Z,21.50
2019-02-08T10:17:51.890Z,16.80
2019-02-08T10:20:58.296Z,19.12
2019-02-08T10:24:00.602Z,17.32
2019-02-08T10:27:15.302Z,15.98
2019-02-08T10:30:29.011Z,15.20
2019-02-08T10:33:52.374Z,14.28
2019-02-08T10:37:26.498Z,13.18
2019-02-08T10:40:29.671Z,14.53
2019-02-08T10:43:29.808Z,16.62
2019-02-08T10:46:44.571Z,14.65
2019-02-08T10:49:38.451Z,14.90
2019-02-08T10:52:53.176Z,15.63
2019-02-08T10:55:47.700Z,15.03
2019-02-08T10:58:53.318Z,19.62
2019-02-08T11:02:05.454Z,14.05
2019-02-08T11:05:24.596Z,24.72
2019-02-08T11:08:34.594Z,13.22
2019-02-08T11:11:36.668Z,15.32
2019-02-08T11:14:41.794Z,14.50
2019-02-08T11:18:10.095Z,12.85
2019-02-08T11:20:39.026Z,18.32
2019-02-08T11:23:07.135Z,13.32
2019-02-08T11:25:35.275Z,14.85
2019-02-08T11:28:03.491Z,15.05
2019-02-08T11:30:31.657Z,14.35
2019-02-08T11:32:59.841Z,13.48
2019-02-08T11:35:28.284Z,14.38
2019-02-08T11:37:57.123Z,13.15
2019-02-08T11:40:26.202Z,13.83
2019-02-08T11:42:54.696Z,14.03
2019-02-08T11:45:23.957Z,12.98
2019-02-08T11:47:52.158Z,12.05
2019-02-08T11:50:21.502Z,12.75
2019-02-08T11:52:51.677Z,12.98
2019-02-08T11:55:19.842Z,11.43
2019-02-08T11:57:59.792Z,13.00
2019-02-08T12:00:40.100Z,13.75
2019-02-08T12:03:08.343Z,14.67
2019-02-08T12:05:36.497Z,13.10
2019-02-08T12:08:04.965Z,14.73
2019-02-08T12:10:33.165Z,15.90
2019-02-08T12:13:01.339Z,16.12
2019-02-08T12:15:29.495Z,10.93
2019-02-08T12:17:57.675Z,13.48
2019-02-08T12:20:25.849Z,14.30
2019-02-08T12:22:54.015Z,14.93
2019-02-08T12:25:22.244Z,15.03
2019-02-08T12:27:50.404Z,14.33
2019-02-08T12:30:22.222Z,13.28
2019-02-08T12:32:51.407Z,13.58
2019-02-08T12:35:19.592Z,13.22
2019-02-08T12:37:47.771Z,15.05
2019-02-08T12:40:16.608Z,16.55
2019-02-08T12:42:45.061Z,13.55
2019-02-08T12:45:13.356Z,14.55
2019-02-08T12:47:41.796Z,15.70
2019-02-08T12:50:11.092Z,13.53
2019-02-08T12:52:39.289Z,11.43
2019-02-08T12:55:08.640Z,13.20
2019-02-08T12:57:38.817Z,17.10
2019-02-08T13:00:10.189Z,14.75
2019-02-08T13:02:38.308Z,20.77
2019-02-08T13:05:07.696Z,13.45
2019-02-08T13:07:36.155Z,19.73
2019-02-08T13:10:06.202Z,12.95
2019-02-08T13:12:34.436Z,14.95
2019-02-08T13:15:02.656Z,11.22
2019-02-08T13:17:31.835Z,13.40
2019-02-08T13:20:00.231Z,11.83
2019-02-08T13:22:34.145Z,13.38
2019-02-08T13:25:03.427Z,14.33
2019-02-08T13:27:32.238Z,11.45
2019-02-08T13:30:00.542Z,9.43
2019-02-08T13:32:28.697Z,17.37
2019-02-08T13:34:56.855Z,16.55
2019-02-08T13:37:25.041Z,12.85
2019-02-08T13:39:53.201Z,13.23
2019-02-08T13:42:23.430Z,14.33
2019-02-08T13:44:51.988Z,16.63
2019-02-08T13:47:20.192Z,16.10
2019-02-08T13:49:48.784Z,13.70
2019-02-08T13:52:16.929Z,13.48
2019-02-08T13:54:45.103Z,16.37
2019-02-08T13:57:13.291Z,14.13
2019-02-08T13:59:41.483Z,11.73
2019-02-08T14:02:09.639Z,12.18
2019-02-08T14:04:38.739Z,18.40
2019-02-08T14:07:08.177Z,12.82
2019-02-08T14:09:36.729Z,13.45
2019-02-08T14:12:05.287Z,15.98
2019-02-08T14:14:34.494Z,13.60
2019-02-08T14:17:02.665Z,17.27
2019-02-08T14:19:30.829Z,11.73
2019-02-08T14:21:59.015Z,16.80
2019-02-08T14:24:27.267Z,9.55
2019-02-08T14:26:55.491Z,13.48
2019-02-08T14:29:23.627Z,9.50
2019-02-08T14:31:53.074Z,8.73
2019-02-08T14:34:20.244Z,8.03
2019-02-08T14:36:49.712Z,9.28
2019-02-08T14:39:17.856Z,10.48
2019-02-08T14:41:46.034Z,14.37
2019-02-08T14:44:14.199Z,9.15
2019-02-08T14:46:43.437Z,10.00
2019-02-08T14:49:11.582Z,13.75
2019-02-08T14:51:39.788Z,11.70
2019-02-08T14:54:07.935Z,13.70
2019-02-08T14:56:36.104Z,12.80
2019-02-08T14:59:04.266Z,9.40
2019-02-08T15:01:36.705Z,10.43
2019-02-08T15:04:04.955Z,11.28
2019-02-08T15:06:33.093Z,13.22
2019-02-08T15:09:01.258Z,14.50
2019-02-08T15:11:30.456Z,10.58
2019-02-08T15:13:58.662Z,27.60
2019-02-08T15:16:26.817Z,28.43
2019-02-08T15:18:55.290Z,12.63
2019-02-08T15:21:23.851Z,9.13
2019-02-08T15:23:52.068Z,12.68
2019-02-08T15:26:20.266Z,9.35
2019-02-08T15:28:48.404Z,10.82
2019-02-08T15:31:16.562Z,12.60
2019-02-08T15:33:44.748Z,8.35
2019-02-08T15:36:12.909Z,9.65
2019-02-08T15:38:41.392Z,10.82
2019-02-08T15:41:10.371Z,9.63
2019-02-08T15:43:38.572Z,10.72
2019-02-08T15:46:06.885Z,9.65
2019-02-08T15:48:35.124Z,10.68
2019-02-08T15:51:03.288Z,11.03
2019-02-08T15:53:33.770Z,11.73
2019-02-08T15:56:15.609Z,10.50
2019-02-08T15:58:49.616Z,13.48
2019-02-08T16:01:17.827Z,10.05
2019-02-08T16:03:45.971Z,12.90
2019-02-08T16:06:14.141Z,12.50
2019-02-08T16:08:42.333Z,13.68
2019-02-08T16:11:10.772Z,13.38
2019-02-08T16:13:39.282Z,11.83
2019-02-08T16:16:07.744Z,13.50
2019-02-08T16:18:36.240Z,14.20
2019-02-08T16:21:04.811Z,15.32
2019-02-08T16:23:34.110Z,20.05
2019-02-08T16:26:02.308Z,14.28
2019-02-08T16:28:30.872Z,15.45
2019-02-08T16:30:59.247Z,13.13
2019-02-08T16:33:27.428Z,12.95
2019-02-08T16:35:55.923Z,14.50
2019-02-08T16:38:24.135Z,14.05
2019-02-08T16:40:53.573Z,17.50
2019-02-08T16:43:21.783Z,18.73
2019-02-08T16:45:49.965Z,32.08
2019-02-08T16:48:18.097Z,22.40
2019-02-08T16:50:46.548Z,20.82
2019-02-08T16:53:15.024Z,19.05
2019-02-08T16:55:44.454Z,17.67
2019-02-08T16:58:12.640Z,17.23
2019-02-08T17:00:41.853Z,17.00
2019-02-08T17:03:12.038Z,20.57
2019-02-08T17:05:40.267Z,17.77
2019-02-08T17:08:08.673Z,18.05
2019-02-08T17:10:37.220Z,12.80
2019-02-08T17:13:05.847Z,14.18
2019-02-08T17:15:34.149Z,15.30
2019-02-08T17:18:03.344Z,17.85
2019-02-08T17:20:36.540Z,18.52
2019-02-08T17:23:04.949Z,17.82
2019-02-08T17:25:33.397Z,15.80
2019-02-08T17:28:01.706Z,16.77
2019-02-08T17:30:30.253Z,20.72
2019-02-08T17:32:58.436Z,15.72
2019-02-08T17:35:26.722Z,18.25
2019-02-08T17:37:55.916Z,18.52
2019-02-08T17:40:26.293Z,18.15
2019-02-08T17:42:54.399Z,17.10
2019-02-08T17:45:23.218Z,16.35
2019-02-08T17:47:51.417Z,16.32
2019-02-08T17:50:23.738Z,20.20
2019-02-08T17:52:52.213Z,16.65
2019-02-08T17:55:21.640Z,10.60
2019-02-08T17:57:49.854Z,14.95
2019-02-08T18:00:21.840Z,14.73
2019-02-08T18:02:50.041Z,14.75
2019-02-08T18:05:18.188Z,11.38
2019-02-08T18:07:46.403Z,12.18
2019-02-08T18:10:17.379Z,21.87
2019-02-08T18:12:46.882Z,18.48
2019-02-08T18:15:17.333Z,17.35
2019-02-08T18:17:45.900Z,15.10
2019-02-08T18:20:23.249Z,10.25
2019-02-08T18:22:51.413Z,13.70
2019-02-08T18:25:20.045Z,12.80
2019-02-08T18:27:48.268Z,30.02
2019-02-08T18:30:19.496Z,14.10
2019-02-08T18:35:15.502Z,11.70
2019-02-08T18:37:44.036Z,10.08
2019-02-08T18:40:14.220Z,10.88
2019-02-08T18:42:42.817Z,12.60
2019-02-08T18:45:14.255Z,17.70
2019-02-08T18:47:42.440Z,14.40
2019-02-08T18:50:15.428Z,14.87
2019-02-08T18:52:43.627Z,13.28
2019-02-08T18:55:12.020Z,12.80
2019-02-08T18:57:40.172Z,10.78
2019-02-08T19:00:12.424Z,12.33
2019-02-08T19:02:40.670Z,12.37
2019-02-08T19:05:09.692Z,13.48
2019-02-08T19:07:37.891Z,14.55
2019-02-08T19:10:08.155Z,12.63
2019-02-08T19:12:36.256Z,14.30
2019-02-08T19:15:05.865Z,14.35
2019-02-08T19:17:34.069Z,13.60
2019-02-08T19:20:03.034Z,14.83
2019-02-08T19:22:31.202Z,11.22
2019-02-08T19:24:59.718Z,14.73
2019-02-08T19:27:27.828Z,14.27
2019-02-08T19:29:56.042Z,17.80
2019-02-08T19:32:24.247Z,14.63
2019-02-08T19:34:52.394Z,15.13
2019-02-08T19:37:20.528Z,14.18
2019-02-08T19:39:49.138Z,20.95
2019-02-08T19:42:18.831Z,15.88
2019-02-08T19:44:47.319Z,10.18
2019-02-08T19:47:17.739Z,11.63
2019-02-08T19:49:45.933Z,15.90
2019-02-08T19:52:15.130Z,18.30
2019-02-08T19:54:43.561Z,16.82
2019-02-08T19:57:12.237Z,12.90
2019-02-08T19:59:40.374Z,25.73
2019-02-08T20:02:09.564Z,11.90
2019-02-08T20:04:37.737Z,14.35
2019-02-08T20:07:10.204Z,16.23
2019-02-08T20:09:38.686Z,11.85
2019-02-08T20:12:06.862Z,10.32
2019-02-08T20:14:35.045Z,12.37
2019-02-08T20:17:03.216Z,14.98
2019-02-08T20:19:32.412Z,11.55
2019-02-08T20:22:00.592Z,14.07
2019-02-08T20:24:28.760Z,14.13
2019-02-08T20:26:56.934Z,14.25
2019-02-08T20:29:25.366Z,14.20
2019-02-08T20:31:53.606Z,16.57
2019-02-08T20:34:23.273Z,15.38
2019-02-08T20:36:52.480Z,14.20
2019-02-08T20:39:21.008Z,15.35
2019-02-08T20:41:49.147Z,10.98
2019-02-08T20:44:17.361Z,13.08
2019-02-08T20:46:45.499Z,15.13
2019-02-08T20:49:14.679Z,13.13
2019-02-08T20:51:42.863Z,11.18
2019-02-08T20:54:11.065Z,13.95
2019-02-08T20:56:39.583Z,14.67
2019-02-08T20:59:08.158Z,10.75
2019-02-08T21:01:36.649Z,11.85
2019-02-08T21:04:04.973Z,92.00
2019-02-08T21:06:33.417Z,13.72
2019-02-08T21:09:01.606Z,9.10
2019-02-08T21:11:31.092Z,9.80
2019-02-08T21:13:59.575Z,13.20
2019-02-08T21:16:28.721Z,11.33
2019-02-08T21:19:01.061Z,11.60
2019-02-08T21:21:29.283Z,10.60
2019-02-08T21:23:57.681Z,10.88
2019-02-08T21:26:26.211Z,11.15
2019-02-08T21:28:58.078Z,11.12
2019-02-08T21:31:22.829Z,13.35
2019-02-08T21:33:51.344Z,13.15
2019-02-08T21:36:20.608Z,8.63
2019-02-08T21:38:48.794Z,12.18
2019-02-08T21:41:16.989Z,13.62
2019-02-08T21:43:45.529Z,12.95
2019-02-08T21:46:14.429Z,7.05
2019-02-08T21:48:42.623Z,15.45
2019-02-08T21:51:10.775Z,12.55
2019-02-08T21:53:39.359Z,10.18
2019-02-08T21:56:07.559Z,10.35
2019-02-08T21:58:35.995Z,16.45
2019-02-08T22:01:04.505Z,12.28
2019-02-08T22:03:32.694Z,13.13
2019-02-08T22:06:02.819Z,13.75
2019-02-08T22:08:32.003Z,14.27
2019-02-08T22:11:00.546Z,11.53
2019-02-08T22:13:29.687Z,12.98
2019-02-08T22:15:58.929Z,11.55
2019-02-08T22:18:27.440Z,12.10
2019-02-08T22:20:55.635Z,14.23
2019-02-08T22:23:23.804Z,10.08
2019-02-08T22:25:52.347Z,11.95
2019-02-08T22:28:20.965Z,9.75
2019-02-08T22:30:49.516Z,8.30
2019-02-08T22:33:17.721Z,13.40
2019-02-08T22:35:45.853Z,13.05
2019-02-08T22:38:15.019Z,8.45
2019-02-08T22:40:43.168Z,10.57
2019-02-08T22:43:12.031Z,10.65
2019-02-08T22:45:42.218Z,10.58
2019-02-08T22:48:11.437Z,10.90
2019-02-08T22:50:39.543Z,7.33
2019-02-08T22:53:09.293Z,10.60
2019-02-08T22:55:37.466Z,10.53
2019-02-08T22:58:06.335Z,8.45
2019-02-08T23:01:11.022Z,9.85
2019-02-08T23:03:39.880Z,11.53
2019-02-08T23:06:08.248Z,10.33
2019-02-08T23:08:36.800Z,17.37
2019-02-08T23:11:05.209Z,12.73
2019-02-08T23:13:33.364Z,15.23
2019-02-08T23:16:02.019Z,19.57
2019-02-08T23:18:31.750Z,19.42
2019-02-08T23:21:00.245Z,20.68
2019-02-08T23:23:42.779Z,21.23
2019-02-08T23:26:14.397Z,19.67
2019-02-08T23:28:42.996Z,16.20
2019-02-08T23:31:11.156Z,12.85
2019-02-08T23:33:39.326Z,16.93
2019-02-08T23:36:15.812Z,14.98
2019-02-08T23:38:50.848Z,19.43
2019-02-08T23:41:19.017Z,19.77
2019-02-08T23:43:47.548Z,16.40
2019-02-08T23:46:15.776Z,14.47
2019-02-08T23:48:43.932Z,16.52
2019-02-08T23:51:12.114Z,13.72
2019-02-08T23:53:40.273Z,15.30
2019-02-08T23:56:08.849Z,19.20
2019-02-08T23:58:37.038Z,23.72
